sensor_id;sensor_type;location;lat;lon;timestamp;pressure;altitude;pressure_sealevel;temperature;humidity
75538;BME280;64121;48.666;8.114;2022-12-28T00:00:46;100884.00;;;3.10;90.04
75538;BME280;64121;48.666;8.114;2022-12-28T00:03:11;100885.13;;;2.98;89.95
75538;BME280;64121;48.666;8.114;2022-12-28T00:05:36;100875.75;;;2.89;90.08
75538;BME280;64121;48.666;8.114;2022-12-28T00:08:04;100875.75;;;2.89;90.19
75538;BME280;64121;48.666;8.114;2022-12-28T00:10:29;100880.72;;;2.87;90.17
75538;BME280;64121;48.666;8.114;2022-12-28T00:12:55;100877.69;;;2.99;89.97
75538;BME280;64121;48.666;8.114;2022-12-28T00:15:20;100868.31;;;3.10;90.10
75538;BME280;64121;48.666;8.114;2022-12-28T00:17:45;100872.44;;;3.18;89.91
75538;BME280;64121;48.666;8.114;2022-12-28T00:20:11;100869.34;;;3.34;90.50
75538;BME280;64121;48.666;8.114;2022-12-28T00:22:37;100869.09;;;3.36;90.03
75538;BME280;64121;48.666;8.114;2022-12-28T00:25:05;100855.59;;;3.45;89.39
75538;BME280;64121;48.666;8.114;2022-12-28T00:27:30;100850.56;;;3.72;88.56
75538;BME280;64121;48.666;8.114;2022-12-28T00:29:55;100847.19;;;3.80;87.88
75538;BME280;64121;48.666;8.114;2022-12-28T00:32:21;100847.13;;;3.95;87.30
75538;BME280;64121;48.666;8.114;2022-12-28T00:34:46;100857.44;;;4.19;86.20
75538;BME280;64121;48.666;8.114;2022-12-28T00:37:11;100849.34;;;4.38;85.86
75538;BME280;64121;48.666;8.114;2022-12-28T00:39:37;100851.41;;;4.56;84.75
75538;BME280;64121;48.666;8.114;2022-12-28T00:42:03;100837.56;;;4.66;83.93
75538;BME280;64121;48.666;8.114;2022-12-28T00:44:29;100830.00;;;4.77;82.92
75538;BME280;64121;48.666;8.114;2022-12-28T00:46:54;100827.78;;;4.79;83.55
75538;BME280;64121;48.666;8.114;2022-12-28T00:49:20;100818.31;;;4.90;82.85
75538;BME280;64121;48.666;8.114;2022-12-28T00:51:45;100822.88;;;5.00;82.39
75538;BME280;64121;48.666;8.114;2022-12-28T00:54:10;100816.69;;;5.13;82.31
75538;BME280;64121;48.666;8.114;2022-12-28T00:56:35;100815.25;;;5.21;80.95
75538;BME280;64121;48.666;8.114;2022-12-28T00:59:02;100812.53;;;5.39;80.55
75538;BME280;64121;48.666;8.114;2022-12-28T01:01:28;100808.53;;;5.51;80.20
75538;BME280;64121;48.666;8.114;2022-12-28T01:03:54;100809.47;;;5.65;78.70
75538;BME280;64121;48.666;8.114;2022-12-28T01:06:19;100802.22;;;5.69;78.80
75538;BME280;64121;48.666;8.114;2022-12-28T01:08:45;100799.09;;;5.75;78.46
75538;BME280;64121;48.666;8.114;2022-12-28T01:11:12;100793.34;;;5.96;77.92
75538;BME280;64121;48.666;8.114;2022-12-28T01:13:38;100791.75;;;5.90;77.34
75538;BME280;64121;48.666;8.114;2022-12-28T01:16:11;100789.75;;;5.95;76.86
75538;BME280;64121;48.666;8.114;2022-12-28T01:18:36;100782.22;;;6.01;77.15
75538;BME280;64121;48.666;8.114;2022-12-28T01:21:07;100779.88;;;6.08;76.57
75538;BME280;64121;48.666;8.114;2022-12-28T01:23:33;100777.44;;;6.06;76.96
75538;BME280;64121;48.666;8.114;2022-12-28T01:26:00;100765.84;;;6.23;75.72
75538;BME280;64121;48.666;8.114;2022-12-28T01:28:27;100767.34;;;6.34;74.95
75538;BME280;64121;48.666;8.114;2022-12-28T01:30:52;100758.84;;;6.45;74.45
75538;BME280;64121;48.666;8.114;2022-12-28T01:33:19;100761.25;;;6.51;74.05
75538;BME280;64121;48.666;8.114;2022-12-28T01:35:44;100763.22;;;6.64;74.16
75538;BME280;64121;48.666;8.114;2022-12-28T01:38:09;100765.25;;;6.59;74.21
75538;BME280;64121;48.666;8.114;2022-12-28T01:40:35;100763.50;;;6.63;74.05
75538;BME280;64121;48.666;8.114;2022-12-28T01:43:00;100761.88;;;6.62;73.75
75538;BME280;64121;48.666;8.114;2022-12-28T01:45:25;100766.19;;;6.68;73.58
75538;BME280;64121;48.666;8.114;2022-12-28T01:47:52;100762.28;;;6.69;73.82
75538;BME280;64121;48.666;8.114;2022-12-28T01:50:23;100758.94;;;6.72;73.16
75538;BME280;64121;48.666;8.114;2022-12-28T01:52:52;100762.22;;;6.74;72.85
75538;BME280;64121;48.666;8.114;2022-12-28T01:55:21;100767.44;;;6.76;73.10
75538;BME280;64121;48.666;8.114;2022-12-28T01:57:52;100750.84;;;6.76;73.01
75538;BME280;64121;48.666;8.114;2022-12-28T02:00:19;100753.22;;;6.82;72.53
75538;BME280;64121;48.666;8.114;2022-12-28T02:02:48;100745.72;;;6.83;72.52
75538;BME280;64121;48.666;8.114;2022-12-28T02:05:15;100760.38;;;6.83;72.46
75538;BME280;64121;48.666;8.114;2022-12-28T02:07:47;100751.06;;;6.79;72.92
75538;BME280;64121;48.666;8.114;2022-12-28T02:10:16;100736.41;;;6.79;73.05
75538;BME280;64121;48.666;8.114;2022-12-28T02:12:42;100723.09;;;6.81;73.14
75538;BME280;64121;48.666;8.114;2022-12-28T02:15:09;100717.16;;;6.87;72.63
75538;BME280;64121;48.666;8.114;2022-12-28T02:17:34;100709.59;;;6.93;72.16
75538;BME280;64121;48.666;8.114;2022-12-28T02:20:00;100710.72;;;6.92;71.79
75538;BME280;64121;48.666;8.114;2022-12-28T02:22:46;100706.81;;;6.93;71.86
75538;BME280;64121;48.666;8.114;2022-12-28T02:25:45;100696.69;;;6.88;71.65
75538;BME280;64121;48.666;8.114;2022-12-28T02:28:36;100696.34;;;7.04;70.57
75538;BME280;64121;48.666;8.114;2022-12-28T02:31:07;100694.81;;;6.97;71.28
75538;BME280;64121;48.666;8.114;2022-12-28T02:33:39;100695.63;;;6.84;71.47
75538;BME280;64121;48.666;8.114;2022-12-28T02:36:07;100682.44;;;6.95;71.28
75538;BME280;64121;48.666;8.114;2022-12-28T02:38:38;100678.03;;;6.94;72.14
75538;BME280;64121;48.666;8.114;2022-12-28T02:41:08;100688.16;;;6.85;71.00
75538;BME280;64121;48.666;8.114;2022-12-28T02:43:36;100687.97;;;6.95;70.67
75538;BME280;64121;48.666;8.114;2022-12-28T02:46:08;100682.94;;;6.97;70.89
75538;BME280;64121;48.666;8.114;2022-12-28T02:48:41;100681.94;;;7.07;70.31
75538;BME280;64121;48.666;8.114;2022-12-28T02:51:15;100676.09;;;7.08;70.20
75538;BME280;64121;48.666;8.114;2022-12-28T02:54:04;100675.16;;;7.13;70.06
75538;BME280;64121;48.666;8.114;2022-12-28T02:56:40;100667.03;;;7.16;70.10
75538;BME280;64121;48.666;8.114;2022-12-28T02:59:35;100672.38;;;7.13;70.07
75538;BME280;64121;48.666;8.114;2022-12-28T03:02:17;100656.72;;;7.08;70.35
75538;BME280;64121;48.666;8.114;2022-12-28T03:04:57;100657.84;;;7.07;70.90
75538;BME280;64121;48.666;8.114;2022-12-28T03:07:36;100654.03;;;7.17;69.71
75538;BME280;64121;48.666;8.114;2022-12-28T03:10:09;100656.09;;;7.11;70.97
75538;BME280;64121;48.666;8.114;2022-12-28T03:12:39;100653.53;;;7.01;70.75
75538;BME280;64121;48.666;8.114;2022-12-28T03:15:10;100654.25;;;7.07;70.68
75538;BME280;64121;48.666;8.114;2022-12-28T03:17:39;100649.81;;;7.06;70.65
75538;BME280;64121;48.666;8.114;2022-12-28T03:20:09;100639.56;;;7.20;70.10
75538;BME280;64121;48.666;8.114;2022-12-28T03:22:38;100641.31;;;7.29;69.40
75538;BME280;64121;48.666;8.114;2022-12-28T03:25:09;100641.19;;;7.35;69.01
75538;BME280;64121;48.666;8.114;2022-12-28T03:27:37;100635.44;;;7.31;69.96
75538;BME280;64121;48.666;8.114;2022-12-28T03:30:06;100642.84;;;7.22;69.97
75538;BME280;64121;48.666;8.114;2022-12-28T03:32:34;100628.38;;;7.25;70.99
75538;BME280;64121;48.666;8.114;2022-12-28T03:35:00;100622.34;;;7.23;70.60
75538;BME280;64121;48.666;8.114;2022-12-28T03:37:31;100615.47;;;7.20;70.38
75538;BME280;64121;48.666;8.114;2022-12-28T03:40:01;100615.97;;;7.22;70.48
75538;BME280;64121;48.666;8.114;2022-12-28T03:42:33;100603.38;;;7.30;69.85
75538;BME280;64121;48.666;8.114;2022-12-28T03:45:04;100599.97;;;7.33;69.98
75538;BME280;64121;48.666;8.114;2022-12-28T03:47:34;100596.88;;;7.35;69.72
75538;BME280;64121;48.666;8.114;2022-12-28T03:50:02;100598.25;;;7.23;69.76
75538;BME280;64121;48.666;8.114;2022-12-28T03:52:28;100598.34;;;7.18;70.36
75538;BME280;64121;48.666;8.114;2022-12-28T03:54:53;100603.59;;;7.20;70.52
75538;BME280;64121;48.666;8.114;2022-12-28T03:57:21;100594.59;;;7.14;70.88
75538;BME280;64121;48.666;8.114;2022-12-28T03:59:46;100596.03;;;7.12;71.08
75538;BME280;64121;48.666;8.114;2022-12-28T04:02:12;100594.78;;;7.18;70.16
75538;BME280;64121;48.666;8.114;2022-12-28T04:04:38;100592.00;;;7.18;70.25
75538;BME280;64121;48.666;8.114;2022-12-28T04:07:04;100583.84;;;7.13;71.11
75538;BME280;64121;48.666;8.114;2022-12-28T04:09:29;100592.13;;;7.13;70.21
75538;BME280;64121;48.666;8.114;2022-12-28T04:11:54;100591.63;;;7.11;70.72
75538;BME280;64121;48.666;8.114;2022-12-28T04:14:19;100588.53;;;7.12;70.47
75538;BME280;64121;48.666;8.114;2022-12-28T04:16:45;100593.78;;;7.14;70.59
75538;BME280;64121;48.666;8.114;2022-12-28T04:19:10;100586.91;;;7.11;70.79
75538;BME280;64121;48.666;8.114;2022-12-28T04:21:37;100589.56;;;7.16;71.21
75538;BME280;64121;48.666;8.114;2022-12-28T04:24:02;100595.09;;;7.16;70.55
75538;BME280;64121;48.666;8.114;2022-12-28T04:26:27;100589.94;;;7.23;70.29
75538;BME280;64121;48.666;8.114;2022-12-28T04:28:53;100581.59;;;7.37;70.23
75538;BME280;64121;48.666;8.114;2022-12-28T04:31:18;100589.09;;;7.37;70.43
75538;BME280;64121;48.666;8.114;2022-12-28T04:33:43;100589.78;;;7.42;69.93
75538;BME280;64121;48.666;8.114;2022-12-28T04:36:11;100585.50;;;7.36;70.20
75538;BME280;64121;48.666;8.114;2022-12-28T04:38:38;100584.47;;;7.46;69.94
75538;BME280;64121;48.666;8.114;2022-12-28T04:41:05;100575.94;;;7.42;70.92
75538;BME280;64121;48.666;8.114;2022-12-28T04:43:30;100576.53;;;7.53;69.21
75538;BME280;64121;48.666;8.114;2022-12-28T04:45:57;100571.94;;;7.48;69.45
75538;BME280;64121;48.666;8.114;2022-12-28T04:48:22;100570.94;;;7.44;69.56
75538;BME280;64121;48.666;8.114;2022-12-28T04:50:48;100571.22;;;7.43;69.39
75538;BME280;64121;48.666;8.114;2022-12-28T04:53:13;100566.72;;;7.47;69.29
75538;BME280;64121;48.666;8.114;2022-12-28T04:55:40;100565.06;;;7.46;69.69
75538;BME280;64121;48.666;8.114;2022-12-28T04:58:05;100564.25;;;7.45;69.01
75538;BME280;64121;48.666;8.114;2022-12-28T05:00:31;100566.22;;;7.45;69.07
75538;BME280;64121;48.666;8.114;2022-12-28T05:02:57;100564.22;;;7.23;70.32
75538;BME280;64121;48.666;8.114;2022-12-28T05:05:22;100562.00;;;7.11;71.29
75538;BME280;64121;48.666;8.114;2022-12-28T05:07:48;100556.16;;;7.13;71.23
75538;BME280;64121;48.666;8.114;2022-12-28T05:10:13;100559.31;;;7.20;69.77
75538;BME280;64121;48.666;8.114;2022-12-28T05:12:40;100560.75;;;7.17;70.93
75538;BME280;64121;48.666;8.114;2022-12-28T05:15:06;100563.31;;;7.14;70.68
75538;BME280;64121;48.666;8.114;2022-12-28T05:17:32;100562.31;;;7.10;70.85
75538;BME280;64121;48.666;8.114;2022-12-28T05:19:57;100562.63;;;7.08;71.24
75538;BME280;64121;48.666;8.114;2022-12-28T05:22:22;100566.47;;;7.21;70.96
75538;BME280;64121;48.666;8.114;2022-12-28T05:24:48;100555.81;;;7.28;70.33
75538;BME280;64121;48.666;8.114;2022-12-28T05:27:13;100558.56;;;7.28;70.33
75538;BME280;64121;48.666;8.114;2022-12-28T05:29:39;100553.84;;;7.28;70.08
75538;BME280;64121;48.666;8.114;2022-12-28T05:32:05;100552.72;;;7.29;70.68
75538;BME280;64121;48.666;8.114;2022-12-28T05:34:30;100543.31;;;7.17;70.47
75538;BME280;64121;48.666;8.114;2022-12-28T05:36:55;100547.22;;;7.16;70.63
75538;BME280;64121;48.666;8.114;2022-12-28T05:39:21;100546.69;;;7.27;70.11
75538;BME280;64121;48.666;8.114;2022-12-28T05:41:46;100543.41;;;7.25;70.20
75538;BME280;64121;48.666;8.114;2022-12-28T05:44:12;100535.66;;;7.14;70.74
75538;BME280;64121;48.666;8.114;2022-12-28T05:46:38;100554.22;;;7.13;71.31
75538;BME280;64121;48.666;8.114;2022-12-28T05:49:06;100533.06;;;7.17;70.66
75538;BME280;64121;48.666;8.114;2022-12-28T05:51:32;100540.56;;;7.17;71.30
75538;BME280;64121;48.666;8.114;2022-12-28T05:53:58;100540.56;;;7.17;71.12
75538;BME280;64121;48.666;8.114;2022-12-28T05:56:25;100533.19;;;7.12;70.94
75538;BME280;64121;48.666;8.114;2022-12-28T05:58:53;100535.34;;;7.15;71.31
75538;BME280;64121;48.666;8.114;2022-12-28T06:01:20;100523.97;;;7.17;70.92
75538;BME280;64121;48.666;8.114;2022-12-28T06:03:52;100527.00;;;7.29;70.28
75538;BME280;64121;48.666;8.114;2022-12-28T06:06:18;100523.72;;;7.27;70.48
75538;BME280;64121;48.666;8.114;2022-12-28T06:08:45;100519.25;;;7.17;71.16
75538;BME280;64121;48.666;8.114;2022-12-28T06:11:12;100522.09;;;7.26;71.10
75538;BME280;64121;48.666;8.114;2022-12-28T06:13:39;100517.56;;;7.30;70.87
75538;BME280;64121;48.666;8.114;2022-12-28T06:16:05;100515.75;;;7.25;71.20
75538;BME280;64121;48.666;8.114;2022-12-28T06:18:30;100518.69;;;7.29;71.07
75538;BME280;64121;48.666;8.114;2022-12-28T06:21:02;100518.06;;;7.32;70.56
75538;BME280;64121;48.666;8.114;2022-12-28T06:23:27;100515.09;;;7.28;71.11
75538;BME280;64121;48.666;8.114;2022-12-28T06:25:53;100506.72;;;7.42;69.85
75538;BME280;64121;48.666;8.114;2022-12-28T06:28:18;100507.84;;;7.41;70.36
75538;BME280;64121;48.666;8.114;2022-12-28T06:30:43;100505.72;;;7.38;70.29
75538;BME280;64121;48.666;8.114;2022-12-28T06:33:09;100496.28;;;7.39;70.20
75538;BME280;64121;48.666;8.114;2022-12-28T06:35:39;100500.69;;;7.40;70.22
75538;BME280;64121;48.666;8.114;2022-12-28T06:38:05;100494.34;;;7.40;70.53
75538;BME280;64121;48.666;8.114;2022-12-28T06:40:31;100487.88;;;7.44;70.64
75538;BME280;64121;48.666;8.114;2022-12-28T06:42:56;100497.00;;;7.45;69.95
75538;BME280;64121;48.666;8.114;2022-12-28T06:45:21;100490.00;;;7.47;69.44
75538;BME280;64121;48.666;8.114;2022-12-28T06:47:47;100484.66;;;7.51;70.13
75538;BME280;64121;48.666;8.114;2022-12-28T06:50:12;100488.88;;;7.48;69.71
75538;BME280;64121;48.666;8.114;2022-12-28T06:52:37;100477.84;;;7.57;69.11
75538;BME280;64121;48.666;8.114;2022-12-28T06:55:05;100475.69;;;7.54;69.65
75538;BME280;64121;48.666;8.114;2022-12-28T06:57:30;100475.44;;;7.64;69.25
75538;BME280;64121;48.666;8.114;2022-12-28T06:59:56;100476.59;;;7.63;69.02
75538;BME280;64121;48.666;8.114;2022-12-28T07:02:21;100465.78;;;7.62;69.21
75538;BME280;64121;48.666;8.114;2022-12-28T07:04:46;100466.69;;;7.71;68.88
75538;BME280;64121;48.666;8.114;2022-12-28T07:07:12;100466.50;;;7.67;69.15
75538;BME280;64121;48.666;8.114;2022-12-28T07:09:37;100478.44;;;7.76;68.74
75538;BME280;64121;48.666;8.114;2022-12-28T07:12:04;100470.50;;;7.83;67.95
75538;BME280;64121;48.666;8.114;2022-12-28T07:14:29;100468.41;;;7.89;67.38
75538;BME280;64121;48.666;8.114;2022-12-28T07:16:55;100476.22;;;7.87;68.15
75538;BME280;64121;48.666;8.114;2022-12-28T07:19:20;100470.03;;;7.90;67.87
75538;BME280;64121;48.666;8.114;2022-12-28T07:21:48;100470.53;;;7.92;68.11
75538;BME280;64121;48.666;8.114;2022-12-28T07:24:14;100461.41;;;7.92;67.95
75538;BME280;64121;48.666;8.114;2022-12-28T07:26:39;100468.88;;;7.91;67.91
75538;BME280;64121;48.666;8.114;2022-12-28T07:29:07;100464.34;;;7.95;67.66
75538;BME280;64121;48.666;8.114;2022-12-28T07:31:34;100461.97;;;8.11;66.78
75538;BME280;64121;48.666;8.114;2022-12-28T07:34:00;100452.50;;;8.12;66.79
75538;BME280;64121;48.666;8.114;2022-12-28T07:36:27;100450.22;;;8.14;66.56
75538;BME280;64121;48.666;8.114;2022-12-28T07:38:53;100443.06;;;8.13;66.88
75538;BME280;64121;48.666;8.114;2022-12-28T07:41:19;100441.56;;;8.07;66.95
75538;BME280;64121;48.666;8.114;2022-12-28T07:43:45;100436.03;;;8.07;67.02
75538;BME280;64121;48.666;8.114;2022-12-28T07:46:14;100440.13;;;8.09;67.29
75538;BME280;64121;48.666;8.114;2022-12-28T07:48:41;100446.78;;;8.08;67.07
75538;BME280;64121;48.666;8.114;2022-12-28T07:51:09;100444.03;;;8.08;67.37
75538;BME280;64121;48.666;8.114;2022-12-28T07:53:34;100439.63;;;8.07;66.96
75538;BME280;64121;48.666;8.114;2022-12-28T07:55:59;100446.63;;;8.13;66.69
75538;BME280;64121;48.666;8.114;2022-12-28T07:58:25;100442.59;;;8.19;66.52
75538;BME280;64121;48.666;8.114;2022-12-28T08:00:51;100439.03;;;8.19;66.59
75538;BME280;64121;48.666;8.114;2022-12-28T08:03:18;100431.31;;;8.16;66.42
75538;BME280;64121;48.666;8.114;2022-12-28T08:05:44;100433.91;;;8.12;66.81
75538;BME280;64121;48.666;8.114;2022-12-28T08:08:09;100430.22;;;8.26;66.79
75538;BME280;64121;48.666;8.114;2022-12-28T08:10:35;100441.47;;;8.29;66.08
75538;BME280;64121;48.666;8.114;2022-12-28T08:13:00;100441.47;;;8.20;66.50
75538;BME280;64121;48.666;8.114;2022-12-28T08:15:26;100433.28;;;8.15;67.08
75538;BME280;64121;48.666;8.114;2022-12-28T08:17:52;100440.00;;;8.32;66.32
75538;BME280;64121;48.666;8.114;2022-12-28T08:20:19;100429.81;;;8.41;65.99
75538;BME280;64121;48.666;8.114;2022-12-28T08:22:45;100433.56;;;8.45;65.84
75538;BME280;64121;48.666;8.114;2022-12-28T08:25:10;100429.00;;;8.49;65.66
75538;BME280;64121;48.666;8.114;2022-12-28T08:27:36;100429.81;;;8.49;66.11
75538;BME280;64121;48.666;8.114;2022-12-28T08:30:01;100437.47;;;8.53;66.20
75538;BME280;64121;48.666;8.114;2022-12-28T08:32:26;100428.34;;;8.52;65.83
75538;BME280;64121;48.666;8.114;2022-12-28T08:34:52;100429.00;;;8.58;65.27
75538;BME280;64121;48.666;8.114;2022-12-28T08:37:18;100416.94;;;8.62;65.81
75538;BME280;64121;48.666;8.114;2022-12-28T08:39:44;100414.00;;;8.67;65.55
75538;BME280;64121;48.666;8.114;2022-12-28T08:42:09;100418.56;;;8.80;64.29
75538;BME280;64121;48.666;8.114;2022-12-28T08:44:34;100415.81;;;8.80;64.97
75538;BME280;64121;48.666;8.114;2022-12-28T08:47:00;100421.03;;;8.82;64.63
75538;BME280;64121;48.666;8.114;2022-12-28T08:49:25;100415.63;;;8.86;64.06
75538;BME280;64121;48.666;8.114;2022-12-28T08:51:51;100417.09;;;8.92;64.22
75538;BME280;64121;48.666;8.114;2022-12-28T08:54:18;100410.44;;;8.93;64.46
75538;BME280;64121;48.666;8.114;2022-12-28T08:56:44;100406.00;;;8.92;64.49
75538;BME280;64121;48.666;8.114;2022-12-28T08:59:10;100407.66;;;8.93;64.51
75538;BME280;64121;48.666;8.114;2022-12-28T09:01:38;100405.03;;;8.96;64.86
75538;BME280;64121;48.666;8.114;2022-12-28T09:04:04;100406.50;;;8.94;64.77
75538;BME280;64121;48.666;8.114;2022-12-28T09:06:31;100402.25;;;8.96;64.37
75538;BME280;64121;48.666;8.114;2022-12-28T09:08:57;100406.47;;;9.02;64.12
75538;BME280;64121;48.666;8.114;2022-12-28T09:11:25;100405.66;;;9.10;64.09
75538;BME280;64121;48.666;8.114;2022-12-28T09:13:51;100405.34;;;9.12;64.44
75538;BME280;64121;48.666;8.114;2022-12-28T09:16:18;100401.25;;;9.09;64.31
75538;BME280;64121;48.666;8.114;2022-12-28T09:18:44;100400.56;;;9.21;63.75
75538;BME280;64121;48.666;8.114;2022-12-28T09:21:12;100400.41;;;9.26;63.17
75538;BME280;64121;48.666;8.114;2022-12-28T09:23:37;100403.66;;;9.28;63.11
75538;BME280;64121;48.666;8.114;2022-12-28T09:26:06;100398.63;;;9.30;63.50
75538;BME280;64121;48.666;8.114;2022-12-28T09:28:32;100407.91;;;9.34;63.06
75538;BME280;64121;48.666;8.114;2022-12-28T09:31:01;100399.72;;;9.29;63.35
75538;BME280;64121;48.666;8.114;2022-12-28T09:33:26;100403.03;;;9.31;63.27
75538;BME280;64121;48.666;8.114;2022-12-28T09:35:56;100404.97;;;9.31;63.19
75538;BME280;64121;48.666;8.114;2022-12-28T09:38:22;100407.91;;;9.34;63.66
75538;BME280;64121;48.666;8.114;2022-12-28T09:40:47;100407.09;;;9.25;63.70
75538;BME280;64121;48.666;8.114;2022-12-28T09:43:12;100410.34;;;9.27;64.41
75538;BME280;64121;48.666;8.114;2022-12-28T09:45:40;100407.25;;;9.29;63.44
75538;BME280;64121;48.666;8.114;2022-12-28T09:48:07;100407.25;;;9.29;64.12
75538;BME280;64121;48.666;8.114;2022-12-28T09:50:36;100402.84;;;9.28;63.63
75538;BME280;64121;48.666;8.114;2022-12-28T09:53:18;100406.13;;;9.30;64.03
75538;BME280;64121;48.666;8.114;2022-12-28T09:55:52;100396.66;;;9.31;63.81
75538;BME280;64121;48.666;8.114;2022-12-28T09:58:19;100403.03;;;9.31;63.49
75538;BME280;64121;48.666;8.114;2022-12-28T10:00:48;100405.47;;;9.33;63.87
75538;BME280;64121;48.666;8.114;2022-12-28T10:03:16;100404.63;;;9.41;63.32
75538;BME280;64121;48.666;8.114;2022-12-28T10:05:43;100409.03;;;9.42;64.29
75538;BME280;64121;48.666;8.114;2022-12-28T10:08:12;100407.22;;;9.46;63.79
75538;BME280;64121;48.666;8.114;2022-12-28T10:10:39;100410.66;;;9.52;64.02
75538;BME280;64121;48.666;8.114;2022-12-28T10:13:13;100408.84;;;9.56;63.93
75538;BME280;64121;48.666;8.114;2022-12-28T10:15:40;100398.50;;;9.65;63.81
75538;BME280;64121;48.666;8.114;2022-12-28T10:18:07;100392.09;;;9.73;62.62
75538;BME280;64121;48.666;8.114;2022-12-28T10:20:33;100402.06;;;9.74;62.60
75538;BME280;64121;48.666;8.114;2022-12-28T10:22:58;100389.47;;;9.77;62.92
75538;BME280;64121;48.666;8.114;2022-12-28T10:25:25;100392.72;;;9.79;62.61
75538;BME280;64121;48.666;8.114;2022-12-28T10:27:51;100390.75;;;9.79;63.00
75538;BME280;64121;48.666;8.114;2022-12-28T10:30:20;100387.97;;;9.88;62.71
75538;BME280;64121;48.666;8.114;2022-12-28T10:32:50;100375.69;;;9.89;62.48
75538;BME280;64121;48.666;8.114;2022-12-28T10:35:26;100369.13;;;9.93;63.46
75538;BME280;64121;48.666;8.114;2022-12-28T10:37:59;100369.25;;;9.97;62.83
75538;BME280;64121;48.666;8.114;2022-12-28T10:40:27;100367.63;;;9.96;63.08
75538;BME280;64121;48.666;8.114;2022-12-28T10:42:54;100364.50;;;9.97;62.45
75538;BME280;64121;48.666;8.114;2022-12-28T10:45:21;100348.44;;;10.03;62.41
75538;BME280;64121;48.666;8.114;2022-12-28T10:47:49;100348.59;;;10.07;62.56
75538;BME280;64121;48.666;8.114;2022-12-28T10:50:42;100347.25;;;10.13;63.00
75538;BME280;64121;48.666;8.114;2022-12-28T10:53:16;100343.19;;;10.10;63.73
75538;BME280;64121;48.666;8.114;2022-12-28T10:55:42;100338.06;;;10.21;63.03
75538;BME280;64121;48.666;8.114;2022-12-28T10:58:15;100339.19;;;10.20;62.97
75538;BME280;64121;48.666;8.114;2022-12-28T11:00:52;100336.59;;;10.23;62.87
75538;BME280;64121;48.666;8.114;2022-12-28T11:03:22;100333.59;;;10.28;63.84
75538;BME280;64121;48.666;8.114;2022-12-28T11:05:49;100335.09;;;10.26;63.22
75538;BME280;64121;48.666;8.114;2022-12-28T11:08:15;100325.72;;;10.30;62.83
75538;BME280;64121;48.666;8.114;2022-12-28T11:10:40;100313.31;;;10.28;63.50
75538;BME280;64121;48.666;8.114;2022-12-28T11:13:16;100308.56;;;10.28;63.06
75538;BME280;64121;48.666;8.114;2022-12-28T11:15:43;100307.34;;;10.38;63.24
75538;BME280;64121;48.666;8.114;2022-12-28T11:18:13;100298.66;;;10.40;62.54
75538;BME280;64121;48.666;8.114;2022-12-28T11:20:42;100306.81;;;10.45;62.29
75538;BME280;64121;48.666;8.114;2022-12-28T11:23:15;100296.63;;;10.49;62.84
75538;BME280;64121;48.666;8.114;2022-12-28T11:25:42;100300.28;;;10.61;62.61
75538;BME280;64121;48.666;8.114;2022-12-28T11:28:13;100302.50;;;10.68;63.19
75538;BME280;64121;48.666;8.114;2022-12-28T11:30:38;100310.56;;;10.82;62.02
75538;BME280;64121;48.666;8.114;2022-12-28T11:33:04;100289.81;;;10.91;61.27
75538;BME280;64121;48.666;8.114;2022-12-28T11:35:32;100297.00;;;10.92;61.53
75538;BME280;64121;48.666;8.114;2022-12-28T11:38:01;100294.34;;;10.96;61.38
75538;BME280;64121;48.666;8.114;2022-12-28T11:40:48;100295.09;;;11.05;61.52
75538;BME280;64121;48.666;8.114;2022-12-28T11:43:38;100291.97;;;11.07;61.08
75538;BME280;64121;48.666;8.114;2022-12-28T11:46:04;100278.97;;;11.11;60.63
75538;BME280;64121;48.666;8.114;2022-12-28T11:51:19;100273.22;;;11.40;60.67
75538;BME280;64121;48.666;8.114;2022-12-28T11:53:52;100262.63;;;11.34;58.93
75538;BME280;64121;48.666;8.114;2022-12-28T11:56:19;100263.66;;;11.29;60.02
75538;BME280;64121;48.666;8.114;2022-12-28T12:01:41;100253.94;;;11.23;60.50
75538;BME280;64121;48.666;8.114;2022-12-28T12:04:16;100241.19;;;11.34;60.14
75538;BME280;64121;48.666;8.114;2022-12-28T12:07:13;100240.47;;;11.37;59.91
75538;BME280;64121;48.666;8.114;2022-12-28T12:09:41;100228.03;;;11.59;59.38
75538;BME280;64121;48.666;8.114;2022-12-28T12:12:36;100226.88;;;11.72;59.00
75538;BME280;64121;48.666;8.114;2022-12-28T12:15:13;100215.59;;;11.81;57.19
75538;BME280;64121;48.666;8.114;2022-12-28T12:17:43;100214.09;;;11.71;58.10
75538;BME280;64121;48.666;8.114;2022-12-28T12:20:19;100205.28;;;11.81;58.10
75538;BME280;64121;48.666;8.114;2022-12-28T12:22:47;100203.88;;;11.75;58.37
75538;BME280;64121;48.666;8.114;2022-12-28T12:25:19;100211.88;;;11.52;57.12
75538;BME280;64121;48.666;8.114;2022-12-28T12:27:49;100201.69;;;11.44;58.21
75538;BME280;64121;48.666;8.114;2022-12-28T12:30:19;100192.31;;;11.37;58.55
75538;BME280;64121;48.666;8.114;2022-12-28T12:32:48;100193.22;;;11.16;60.04
75538;BME280;64121;48.666;8.114;2022-12-28T12:35:19;100187.31;;;11.06;59.33
75538;BME280;64121;48.666;8.114;2022-12-28T12:37:49;100185.78;;;11.08;59.52
75538;BME280;64121;48.666;8.114;2022-12-28T12:40:41;100183.13;;;11.00;59.40
75538;BME280;64121;48.666;8.114;2022-12-28T12:43:25;100174.63;;;10.96;60.09
75538;BME280;64121;48.666;8.114;2022-12-28T12:45:56;100173.34;;;10.93;60.39
75538;BME280;64121;48.666;8.114;2022-12-28T12:48:36;100165.34;;;10.92;60.85
75538;BME280;64121;48.666;8.114;2022-12-28T12:51:12;100162.91;;;10.90;61.77
75538;BME280;64121;48.666;8.114;2022-12-28T12:53:57;100165.69;;;10.90;61.58
75538;BME280;64121;48.666;8.114;2022-12-28T12:56:36;100161.06;;;10.82;61.81
75538;BME280;64121;48.666;8.114;2022-12-28T12:59:22;100154.09;;;10.88;62.45
75538;BME280;64121;48.666;8.114;2022-12-28T13:01:57;100146.69;;;10.92;62.55
75538;BME280;64121;48.666;8.114;2022-12-28T13:04:28;100143.09;;;11.04;62.70
75538;BME280;64121;48.666;8.114;2022-12-28T13:06:58;100136.38;;;11.05;62.00
75538;BME280;64121;48.666;8.114;2022-12-28T13:09:25;100140.41;;;11.08;62.52